Lee, Maine
Current Conditions -  °F | °C
As of 4:00 PM on Thursday 18 Dec 2014 (Local Time) from KBGR Reporting Station
Light Snow Light Snow  
Wind Chill: 21°   Ceiling: 3600
Heat Index: 31°   Visibility: 6mi
Dew Point: 26°   Wind: 14mph
Humidity: 82%   Direction: 300°WNW
Pressure: 29.66"   Gusts: 21mph
Location:  45.36°N, 68.29°W
Report Text: KBGR 182100Z 30012G18KT 6SM -SN FEW020 BKN036 OVC050 M01/M03 A2966 RMK AO2 P0000 T10061033
Loading
Personal Weather Stations






























Interactive Weather Map New forecast layout! Learn more

10-Day Weather Forecast

Advertisements
Track Severe Weather on mobile